createdAt,value
2022-11-20T00:03:49.367Z,23.83
2022-11-20T00:08:58.739Z,21.35
2022-11-20T00:14:05.384Z,17.50
2022-11-20T00:19:10.575Z,14.77
2022-11-20T00:24:18.582Z,23.08
2022-11-20T00:29:23.853Z,22.80
2022-11-20T00:34:29.154Z,16.70
2022-11-20T00:39:36.981Z,19.13
2022-11-20T00:44:42.574Z,22.30
2022-11-20T00:49:47.764Z,21.50
2022-11-20T00:54:55.384Z,18.73
2022-11-20T01:00:00.426Z,19.52
2022-11-20T01:05:05.545Z,22.23
2022-11-20T01:10:13.558Z,19.50
2022-11-20T01:15:18.764Z,17.58
2022-11-20T01:20:23.860Z,17.35
2022-11-20T01:25:31.615Z,18.90
2022-11-20T01:30:36.667Z,15.45
2022-11-20T01:35:41.815Z,17.13
2022-11-20T01:40:49.474Z,15.02
2022-11-20T01:46:17.665Z,17.23
2022-11-20T01:51:26.686Z,15.88
2022-11-20T01:56:37.736Z,17.92
2022-11-20T02:01:43.172Z,14.35
2022-11-20T02:06:51.445Z,15.68
2022-11-20T02:11:59.466Z,20.33
2022-11-20T02:17:04.488Z,15.93
2022-11-20T02:22:13.197Z,18.10
2022-11-20T02:27:21.523Z,15.75
2022-11-20T02:32:28.149Z,18.15
2022-11-20T02:37:36.862Z,12.00
2022-11-20T02:42:44.732Z,17.88
2022-11-20T02:47:49.803Z,18.35
2022-11-20T02:52:54.919Z,17.00
2022-11-20T02:58:02.610Z,14.85
2022-11-20T03:03:07.662Z,16.83
2022-11-20T03:08:12.718Z,15.80
2022-11-20T03:13:20.480Z,21.80
2022-11-20T03:18:25.606Z,17.70
2022-11-20T03:23:30.618Z,14.90
2022-11-20T03:28:38.291Z,17.98
2022-11-20T03:33:43.860Z,14.32
2022-11-20T03:38:49.414Z,13.43
2022-11-20T03:43:58.612Z,12.65
2022-11-20T03:49:03.845Z,12.90
2022-11-20T03:54:11.367Z,12.63
2022-11-20T03:59:19.434Z,13.98
2022-11-20T04:04:24.648Z,11.30
2022-11-20T04:09:29.762Z,12.80
2022-11-20T04:14:37.982Z,13.20
2022-11-20T04:19:43.004Z,10.07
2022-11-20T04:24:48.076Z,10.18
2022-11-20T04:29:55.692Z,9.98
2022-11-20T04:35:00.746Z,11.35
2022-11-20T04:40:05.926Z,10.55
2022-11-20T04:45:14.492Z,14.95
2022-11-20T04:50:19.885Z,16.63
2022-11-20T04:55:24.890Z,13.38
2022-11-20T05:00:32.645Z,15.20
2022-11-20T05:05:38.178Z,14.45
2022-11-20T05:10:43.130Z,13.95
2022-11-20T05:15:50.912Z,16.98
2022-11-20T05:21:00.036Z,18.33
2022-11-20T05:26:05.503Z,20.35
2022-11-20T05:31:14.692Z,16.92
2022-11-20T05:36:22.934Z,16.70
2022-11-20T05:41:28.083Z,19.13
2022-11-20T05:46:36.457Z,21.65
2022-11-20T05:51:55.312Z,22.77
2022-11-20T05:57:00.587Z,18.80
2022-11-20T06:02:08.378Z,18.23
2022-11-20T06:07:13.822Z,18.35
2022-11-20T06:12:21.988Z,25.85
2022-11-20T06:17:29.793Z,20.30
2022-11-20T06:22:35.831Z,20.27
2022-11-20T06:27:41.025Z,26.48
2022-11-20T06:32:48.682Z,23.35
2022-11-20T06:37:53.811Z,23.20
2022-11-20T06:42:59.135Z,22.70
2022-11-20T06:48:07.208Z,23.45
2022-11-20T06:53:12.650Z,22.33
2022-11-20T06:58:18.668Z,26.35
2022-11-20T07:03:26.510Z,24.15
2022-11-20T07:08:32.033Z,25.83
2022-11-20T07:13:58.780Z,28.65
2022-11-20T07:19:43.324Z,30.27
2022-11-20T07:24:49.984Z,28.17
2022-11-20T07:29:55.489Z,25.88
2022-11-20T07:35:08.316Z,28.73
2022-11-20T07:40:15.410Z,26.65
2022-11-20T07:45:20.761Z,24.50
2022-11-20T07:50:28.756Z,24.30
2022-11-20T07:55:33.968Z,23.50
2022-11-20T08:00:42.534Z,24.75
2022-11-20T08:11:40.978Z,27.70
2022-11-20T08:16:48.958Z,28.73
2022-11-20T08:22:54.472Z,24.25
2022-11-20T10:03:22.562Z,25.13
2022-11-20T10:08:33.144Z,22.40
2022-11-20T10:13:46.988Z,23.25
2022-11-20T10:19:03.783Z,22.83
2022-11-20T10:24:31.864Z,23.00
2022-11-20T10:29:38.255Z,23.13
2022-11-20T10:34:51.376Z,19.98
2022-11-20T10:40:03.999Z,20.00
2022-11-20T10:45:18.010Z,21.80
2022-11-20T10:50:28.050Z,23.23
2022-11-20T10:55:40.153Z,21.58
2022-11-20T11:00:45.888Z,22.70
2022-11-20T11:06:01.459Z,18.00
2022-11-20T11:11:17.444Z,20.95
2022-11-20T11:16:27.541Z,18.20
2022-11-20T11:21:35.609Z,22.40
2022-11-20T11:26:41.419Z,20.88
2022-11-20T11:31:54.042Z,26.40
2022-11-20T11:37:04.487Z,22.52
2022-11-20T11:42:09.727Z,25.17
2022-11-20T11:47:27.836Z,22.90
2022-11-20T11:52:37.417Z,25.25
2022-11-20T11:57:50.369Z,26.88
2022-11-20T12:03:11.391Z,26.73
2022-11-20T12:08:22.932Z,26.63
2022-11-20T12:13:44.876Z,30.73
2022-11-20T12:18:53.870Z,36.50
2022-11-20T12:24:31.557Z,25.90
2022-11-20T14:15:54.803Z,28.13
2022-11-20T14:27:56.146Z,35.72
2022-11-20T14:55:17.334Z,28.38
2022-11-20T15:28:35.195Z,32.42
2022-11-20T15:38:45.255Z,27.38
2022-11-20T15:43:52.906Z,25.35
2022-11-20T15:48:59.061Z,27.98
2022-11-20T15:54:05.217Z,31.10
2022-11-20T15:59:13.382Z,30.23
2022-11-20T16:04:20.394Z,22.50
2022-11-20T16:09:33.108Z,24.10
2022-11-20T16:14:53.092Z,24.58
2022-11-20T16:19:58.917Z,21.08
2022-11-20T16:25:05.393Z,24.90
2022-11-20T16:30:14.660Z,32.15
2022-11-20T16:35:20.031Z,27.98
2022-11-20T16:40:25.260Z,27.45
2022-11-20T16:45:34.559Z,26.25
2022-11-20T16:50:39.598Z,28.08
2022-11-20T16:55:44.790Z,20.33
2022-11-20T17:00:52.504Z,24.42
2022-11-20T17:05:57.639Z,33.47
2022-11-20T17:11:08.518Z,28.50
2022-11-20T17:16:18.774Z,25.80
2022-11-20T17:21:24.416Z,25.52
2022-11-20T17:26:29.484Z,22.88
2022-11-20T17:31:38.826Z,26.10
2022-11-20T17:36:45.884Z,28.60
2022-11-20T17:42:11.688Z,29.58
2022-11-20T17:48:32.868Z,29.45
2022-11-20T17:53:48.993Z,23.38
2022-11-20T17:58:54.311Z,27.67
2022-11-20T18:03:59.643Z,28.60
2022-11-20T18:09:08.469Z,28.13
2022-11-20T18:14:28.681Z,26.83
2022-11-20T18:19:40.931Z,32.83
2022-11-20T18:24:53.000Z,22.27
2022-11-20T18:29:58.361Z,26.95
2022-11-20T18:35:03.601Z,24.75
2022-11-20T18:40:14.101Z,32.10
2022-11-20T18:45:19.284Z,34.97
2022-11-20T18:50:25.132Z,38.70
2022-11-20T18:55:32.933Z,31.33
2022-11-20T19:00:38.027Z,29.75
2022-11-20T19:05:43.698Z,35.42
2022-11-20T19:10:51.799Z,38.85
2022-11-20T19:15:57.295Z,31.67
2022-11-20T19:21:10.396Z,28.38
2022-11-20T19:26:18.283Z,39.67
2022-11-20T19:31:25.135Z,33.15
2022-11-20T19:36:32.182Z,30.75
2022-11-20T19:41:41.890Z,38.40
2022-11-20T19:46:47.031Z,29.17
2022-11-20T19:51:52.638Z,27.65
2022-11-20T19:57:00.232Z,29.40
2022-11-20T20:02:05.515Z,34.45
2022-11-20T20:07:10.639Z,32.03
2022-11-20T20:12:18.662Z,30.42
2022-11-20T20:17:23.759Z,25.27
2022-11-20T20:22:28.730Z,24.85
2022-11-20T20:27:36.960Z,27.25
2022-11-20T20:32:42.029Z,30.42
2022-11-20T20:37:47.167Z,30.15
2022-11-20T20:42:54.895Z,29.20
2022-11-20T20:48:00.338Z,29.70
2022-11-20T20:53:05.337Z,29.08
2022-11-20T20:58:13.032Z,28.95
2022-11-20T21:03:18.086Z,30.85
2022-11-20T21:08:25.822Z,27.13
2022-11-20T21:13:34.064Z,28.80
2022-11-20T21:18:42.461Z,27.63
2022-11-20T21:23:49.179Z,28.70
2022-11-20T21:28:57.067Z,25.08
2022-11-20T21:34:02.688Z,27.85
2022-11-20T21:39:08.072Z,27.35
2022-11-20T21:44:33.044Z,26.08
2022-11-20T21:49:38.158Z,29.27
2022-11-20T21:54:43.231Z,27.95
2022-11-20T21:59:50.938Z,31.20
2022-11-20T22:04:56.127Z,30.05
2022-11-20T22:10:01.246Z,29.80
2022-11-20T22:15:10.200Z,30.25
2022-11-20T22:20:15.257Z,31.35
2022-11-20T22:25:20.413Z,32.90
2022-11-20T22:30:28.436Z,29.42
2022-11-20T22:35:33.537Z,29.73
2022-11-20T22:40:38.737Z,32.17
2022-11-20T22:45:46.655Z,34.10
2022-11-20T22:50:51.764Z,33.53
2022-11-20T22:55:56.743Z,31.67
2022-11-20T23:01:12.338Z,31.85
2022-11-20T23:06:18.662Z,32.15
2022-11-20T23:11:25.111Z,29.45
2022-11-20T23:16:33.822Z,33.05
2022-11-20T23:21:40.019Z,34.75
2022-11-20T23:26:47.196Z,33.78
2022-11-20T23:31:54.861Z,33.03
2022-11-20T23:37:01.339Z,32.38
2022-11-20T23:42:06.449Z,35.30
2022-11-20T23:47:14.059Z,33.50
2022-11-20T23:52:22.397Z,33.63
2022-11-20T23:57:27.490Z,33.25
